Trophy — TROPHY — position and weather

sailwx.info

Track history (hours):
 
Tides and Currents Weather Stations Pressure Air Temp Water Temp Dewpoint Dewpoint Depression Visibility Wind Speed Wind Dir Waves Ship Positions

Trophy

Last reported at 2018-May-23 20:42 UTC. Time now 2018-May-25 01:05 UTC.
Position N 40°42' W 074°10'.

Length 6 m; draft 1 m.

Type: Pleasure craft. MMSI: 338300588.

Date/timePositionNaut miles runAvg speedWind from/ knotsBaromVisibWave heightAir tempDewpointWater temp
2018-May-23 20:42N 40°42' W 074°10'0 0.3
2018-May-23 20:29N 40°42' W 074°10'852138.0
2018-May-23 14:19N 27°25' W 080°17'11 4.5
2018-May-23 11:50N 27°36' W 080°20'0 0.0
2018-May-23 01:14N 27°36' W 080°20'0 0.1
2018-May-23 01:00N 27°36' W 080°20'0 0.0
2018-May-22 23:50N 27°36' W 080°20'0 0.0
2018-May-22 23:28N 27°36' W 080°20'0 0.0
2018-May-22 22:58N 27°36' W 080°20'0 0.0
2018-May-22 22:30N 27°36' W 080°20'0 0.0
2018-May-22 21:19N 27°36' W 080°20'0 0.0
2018-May-22 20:59N 27°36' W 080°20'0 0.0
2018-May-22 20:29N 27°36' W 080°20'3 3.2
2018-May-22 19:28N 27°38' W 080°23'1 0.7
2018-May-22 18:39N 27°37' W 080°24'0 0.0
2018-May-22 18:29N 27°37' W 080°24'0 0.0
2018-May-22 17:17N 27°38' W 080°24'0 0.0
2018-May-22 17:00N 27°38' W 080°24'3 5.2
2018-May-22 16:21N 27°36' W 080°20'0 0.0
2018-May-22 15:57N 27°36' W 080°20'0 0.0
2018-May-22 15:29N 27°36' W 080°20'0 0.0
2018-May-22 14:21N 27°36' W 080°20'0 0.0
2018-May-22 07:52N 27°36' W 080°20'0 0.0
2018-May-22 03:22N 27°36' W 080°20'0 0.0
2018-May-22 02:39N 27°36' W 080°20'0 0.0
2018-May-22 02:29N 27°36' W 080°20'0 0.0
2018-May-22 00:59N 27°36' W 080°20'0 0.0
2018-May-21 23:55N 27°36' W 080°20'0 0.0
2018-May-21 23:02N 27°36' W 080°20'0 0.3
2018-May-21 22:59N 27°36' W 080°20'0 0.0
2018-May-21 22:19N 27°36' W 080°20'0 0.0
2018-May-21 21:55N 27°36' W 080°20'0 0.0
2018-May-21 21:30N 27°36' W 080°20'0 0.0
2018-May-21 21:00N 27°36' W 080°20'0 0.0
2018-May-21 20:20N 27°36' W 080°20'0 0.0
2018-May-21 19:49N 27°36' W 080°20'2 7.3
2018-May-21 19:31N 27°38' W 080°22'2 1.0
2018-May-21 17:17N 27°36' W 080°20'0 0.0
2018-May-21 16:59N 27°36' W 080°20'0 0.1
2018-May-21 16:30N 27°36' W 080°20'0 0.0
2018-May-21 16:00N 27°36' W 080°20'0 0.0
2018-May-21 14:54N 27°36' W 080°20'0 0.0
2018-May-21 14:09N 27°36' W 080°20'0 0.0
2018-May-21 13:57N 27°36' W 080°20'0 0.0
2018-May-21 13:06N 27°36' W 080°20'0 0.0
2018-May-21 12:57N 27°36' W 080°20'0 0.0
2018-May-21 08:59N 27°36' W 080°20'0 0.0
2018-May-21 08:14N 27°36' W 080°20'0 0.0
2018-May-21 07:59N 27°36' W 080°20'0 0.0
2018-May-21 07:28N 27°36' W 080°20'0 0.0
2018-May-21 07:00N 27°36' W 080°20'0 0.0
2018-May-21 06:28N 27°36' W 080°20'0 0.0
2018-May-21 05:59N 27°36' W 080°20'0 0.0
2018-May-21 05:28N 27°36' W 080°20'0 0.0
2018-May-21 04:59N 27°36' W 080°20'0 0.0
2018-May-21 04:27N 27°36' W 080°20'0 0.0
2018-May-21 03:59N 27°36' W 080°20'0 0.0
2018-May-21 03:30N 27°36' W 080°20'0 0.0
2018-May-21 03:00N 27°36' W 080°20'0 0.0
2018-May-21 01:58N 27°36' W 080°20'0 0.0
2018-May-20 23:33N 27°36' W 080°20'0 0.2
2018-May-20 23:30N 27°36' W 080°20'0 0.0
2018-May-20 23:00N 27°36' W 080°20'0 0.0
2018-May-20 21:59N 27°36' W 080°20'0 0.0
2018-May-20 21:28N 27°36' W 080°20'0 0.0
2018-May-20 20:31N 27°36' W 080°20'0 0.2
2018-May-20 20:29N 27°36' W 080°20'0 0.0
2018-May-20 19:57N 27°36' W 080°20'0 0.0
2018-May-20 19:19N 27°36' W 080°20'0 0.0
2018-May-20 18:19N 27°36' W 080°20'0 0.0
2018-May-20 17:57N 27°36' W 080°20'0 0.0
2018-May-20 17:16N 27°36' W 080°20'0 0.0
2018-May-20 16:58N 27°36' W 080°20'0 0.0
2018-May-20 16:07N 27°36' W 080°20'0 0.0
2018-May-20 16:00N 27°36' W 080°20'0 0.0
2018-May-20 14:56N 27°36' W 080°20'0 0.0
2018-May-20 14:26N 27°36' W 080°20'0 0.0
2018-May-20 14:00N 27°36' W 080°20'0 0.0
2018-May-20 11:37N 27°36' W 080°20'0 0.0
2018-May-20 11:30N 27°36' W 080°20'0 0.0
2018-May-20 11:00N 27°36' W 080°20'0 0.0
2018-May-20 10:28N 27°36' W 080°20'0 0.0
2018-May-20 10:00N 27°36' W 080°20'0 0.0
2018-May-20 09:28N 27°36' W 080°20'0 0.0
2018-May-20 08:59N 27°36' W 080°20'0 0.0
2018-May-20 08:30N 27°36' W 080°20'0 0.0
2018-May-20 08:00N 27°36' W 080°20'0 0.0
2018-May-20 07:30N 27°36' W 080°20'0 0.0
2018-May-20 07:00N 27°36' W 080°20'0 0.0
2018-May-20 06:30N 27°36' W 080°20'0 0.0
2018-May-20 05:58N 27°36' W 080°20'0 0.0
2018-May-20 05:29N 27°36' W 080°20'0 0.0
2018-May-20 05:00N 27°36' W 080°20'0 0.0
2018-May-20 04:07N 27°36' W 080°20'0 0.0
2018-May-20 03:48N 27°36' W 080°20'0 0.0
2018-May-20 03:28N 27°36' W 080°20'0 0.0
2018-May-20 00:48N 27°36' W 080°20'0 0.1
2018-May-20 00:30N 27°36' W 080°20'0 0.0
2018-May-19 23:13N 27°36' W 080°20'0 0.0
2018-May-19 22:58N 27°36' W 080°20'0 0.1
2018-May-19 22:29N 27°36' W 080°20'0 0.0
2018-May-19 21:57N 27°36' W 080°20'0 0.0
2018-May-19 21:28N 27°36' W 080°20'0 0.0
2018-May-19 20:51N 27°36' W 080°20'0 0.0
2018-May-19 20:16N 27°36' W 080°20'0 0.0
2018-May-19 20:00N 27°36' W 080°20'0 0.0
2018-May-19 19:29N 27°36' W 080°20'0 0.0
2018-May-19 17:48N 27°36' W 080°20'0 0.0
2018-May-19 16:27N 27°36' W 080°20'0 0.0
2018-May-19 14:57N 27°36' W 080°20'0 0.0
2018-May-19 14:22N 27°36' W 080°20'0 0.0
2018-May-19 14:00N 27°36' W 080°20'0 0.0
2018-May-19 05:06N 27°36' W 080°20'0 0.1
2018-May-19 05:00N 27°36' W 080°20'0 0.0
2018-May-19 02:12N 27°36' W 080°20'0 0.1
2018-May-19 01:58N 27°36' W 080°20'0 0.0
2018-May-19 01:12N 27°36' W 080°20'0 0.0
2018-May-19 00:57N 27°36' W 080°20'0 0.0
2018-May-18 23:33N 27°36' W 080°20'0 0.1
2018-May-18 23:29N 27°36' W 080°20'0 0.0
2018-May-18 23:00N 27°36' W 080°20'0 0.0
2018-May-18 21:42N 27°36' W 080°20'0 0.0
2018-May-18 21:30N 27°36' W 080°20'0 0.0
2018-May-18 21:00N 27°36' W 080°20'0 0.0
2018-May-18 19:26N 27°36' W 080°20'0 0.0
2018-May-18 18:58N 27°36' W 080°20'3 2.4
2018-May-18 17:36N 27°38' W 080°23'0 0.1
2018-May-18 17:19N 27°38' W 080°23'1 1.5
2018-May-18 16:25N 27°39' W 080°24'5 3.2
2018-May-18 14:59N 27°36' W 080°20'0 0.0
2018-May-18 13:28N 27°36' W 080°20'0 0.0
2018-May-18 12:59N 27°36' W 080°20'0 0.0
2018-May-18 12:29N 27°36' W 080°20'0 0.0
2018-May-18 11:57N 27°36' W 080°20'0 0.0
2018-May-18 11:29N 27°36' W 080°20'0 0.0
2018-May-18 10:58N 27°36' W 080°20'0 0.0
2018-May-18 10:29N 27°36' W 080°20'0 0.0
2018-May-18 09:57N 27°36' W 080°20'0 0.0
2018-May-18 09:29N 27°36' W 080°20'0 0.0
2018-May-18 09:00N 27°36' W 080°20'0 0.0
2018-May-18 08:29N 27°36' W 080°20'0 0.0
2018-May-18 07:58N 27°36' W 080°20'0 0.0
2018-May-18 07:28N 27°36' W 080°20'0 0.0
2018-May-18 07:00N 27°36' W 080°20'0 0.0
2018-May-18 06:28N 27°36' W 080°20'0 0.0
2018-May-18 05:57N 27°36' W 080°20'0 0.0
2018-May-18 05:29N 27°36' W 080°20'0 0.0
2018-May-18 04:57N 27°36' W 080°20'0 0.0
2018-May-18 04:28N 27°36' W 080°20'0 0.0
2018-May-18 03:59N 27°36' W 080°20'0 0.0
2018-May-18 02:55N 27°36' W 080°20'0 0.0
2018-May-18 02:17N 27°36' W 080°20'0 0.0
2018-May-18 01:42N 27°36' W 080°20'0 0.0
2018-May-18 01:29N 27°36' W 080°20'0 0.0
2018-May-17 23:12N 27°36' W 080°20'0 0.0
2018-May-17 22:47N 27°36' W 080°20'0 0.0
2018-May-17 22:27N 27°36' W 080°20'0 0.0
2018-May-17 21:52N 27°36' W 080°20'0 0.0
2018-May-17 21:27N 27°36' W 080°20'0 0.0
2018-May-17 20:58N 27°36' W 080°20'0 0.0
2018-May-17 20:30N 27°36' W 080°20'0 0.0
2018-May-17 19:58N 27°36' W 080°20'0 0.0
2018-May-17 19:30N 27°36' W 080°20'0 0.0
2018-May-17 18:58N 27°36' W 080°20'0 0.0
2018-May-17 18:30N 27°36' W 080°20'0 0.0
2018-May-17 17:57N 27°36' W 080°20'0 0.0
2018-May-17 17:27N 27°36' W 080°20'0 0.0
2018-May-17 16:58N 27°36' W 080°20'0 0.0
2018-May-17 15:42N 27°36' W 080°20'0 0.0
2018-May-17 15:09N 27°36' W 080°20'0 0.0
2018-May-17 14:51N 27°36' W 080°20'0 0.0
2018-May-17 14:29N 27°36' W 080°20'0 0.0
2018-May-17 13:52N 27°36' W 080°20'0 0.0
2018-May-17 13:28N 27°36' W 080°20'0 0.0
2018-May-17 12:59N 27°36' W 080°20'0 0.0
2018-May-17 12:29N 27°36' W 080°20'0 0.0
2018-May-17 11:57N 27°36' W 080°20'0 0.0
2018-May-17 08:31N 27°36' W 080°20'0 0.0
2018-May-17 08:19N 27°36' W 080°20'0 0.0
2018-May-17 03:00N 27°36' W 080°20'0 0.0
2018-May-17 01:15N 27°36' W 080°20'0 0.0
2018-May-17 00:01N 27°36' W 080°20'0 0.1
2018-May-16 23:57N 27°36' W 080°20'0 0.0
2018-May-16 23:28N 27°36' W 080°20'0 0.0
2018-May-16 22:37N 27°36' W 080°20'0 0.0
2018-May-16 22:27N 27°36' W 080°20'0 0.0
2018-May-16 22:00N 27°36' W 080°20'0 0.0
2018-May-16 21:29N 27°36' W 080°20'3 2.7
2018-May-16 20:14N 27°38' W 080°23'1 5.5
2018-May-16 20:00N 27°40' W 080°24'5 9.2
2018-May-16 19:30N 27°36' W 080°20'0 0.0
2018-May-16 18:52N 27°36' W 080°20'0 0.0
2018-May-16 18:30N 27°36' W 080°20'0 0.0
2018-May-16 17:12N 27°36' W 080°20'0 0.0
2018-May-16 16:59N 27°36' W 080°20'0 0.0
2018-May-16 16:26N 27°36' W 080°20'0 0.0
2018-May-16 13:12N 27°36' W 080°20'0 0.0
2018-May-16 12:58N 27°36' W 080°20'0 0.0
2018-May-16 12:10N 27°36' W 080°20'0 0.0
2018-May-16 11:57N 27°36' W 080°20'0 0.0
2018-May-16 11:29N 27°36' W 080°20'0 0.0
2018-May-16 11:00N 27°36' W 080°20'0 0.0
2018-May-16 10:28N 27°36' W 080°20'0 0.0
2018-May-16 10:00N 27°36' W 080°20'0 0.0
2018-May-16 09:28N 27°36' W 080°20'0 0.0
2018-May-16 08:59N 27°36' W 080°20'0 0.0
2018-May-16 08:30N 27°36' W 080°20'0 0.0
2018-May-16 07:57N 27°36' W 080°20'0 0.0
2018-May-16 07:28N 27°36' W 080°20'0 0.0
2018-May-16 07:00N 27°36' W 080°20'0 0.0
2018-May-16 06:28N 27°36' W 080°20'0 0.0
2018-May-16 06:00N 27°36' W 080°20'0 0.0
2018-May-16 05:28N 27°36' W 080°20'0 0.0
2018-May-16 05:00N 27°36' W 080°20'0 0.0
2018-May-16 04:29N 27°36' W 080°20'0 0.0
2018-May-16 03:56N 27°36' W 080°20'0 0.0
2018-May-16 03:28N 27°36' W 080°20'0 0.0
2018-May-16 03:00N 27°36' W 080°20'0 0.0
2018-May-16 02:30N 27°36' W 080°20'0 0.0
2018-May-16 01:24N 27°36' W 080°20'0 0.0
2018-May-16 00:54N 27°36' W 080°20'0 0.0
2018-May-15 23:17N 27°36' W 080°20'0 0.0
2018-May-15 22:57N 27°36' W 080°20'0 0.0
2018-May-15 22:29N 27°36' W 080°20'0 0.0
2018-May-15 21:58N 27°36' W 080°20'0 0.0
2018-May-15 21:27N 27°36' W 080°20'0 0.0
2018-May-15 21:00N 27°36' W 080°20'0 0.0
2018-May-15 20:17N 27°36' W 080°20'0 0.0
2018-May-15 19:02N 27°36' W 080°20'0 0.0
2018-May-15 18:37N 27°36' W 080°20'0 0.0
2018-May-15 18:28N 27°36' W 080°20'0 0.0
2018-May-15 17:32N 27°36' W 080°20'0 0.1
2018-May-15 17:28N 27°36' W 080°20'0 0.0
2018-May-15 16:58N 27°36' W 080°20'0 0.0
2018-May-15 16:29N 27°36' W 080°20'0 0.0
2018-May-15 15:58N 27°36' W 080°20'0 0.0
2018-May-15 15:24N 27°36' W 080°20'0 0.0
2018-May-15 14:55N 27°36' W 080°20'0 0.0
2018-May-15 14:27N 27°36' W 080°20'0 0.0
2018-May-15 13:57N 27°36' W 080°20'0 0.0
2018-May-15 13:25N 27°36' W 080°20'0 0.0
2018-May-15 12:56N 27°36' W 080°20'0 0.0
2018-May-15 12:30N 27°36' W 080°20'0 0.0
2018-May-15 12:00N 27°36' W 080°20'0 0.0
2018-May-15 11:26N 27°36' W 080°20'0 0.0
2018-May-15 11:00N 27°36' W 080°20'0 0.0
2018-May-15 10:27N 27°36' W 080°20'0 0.0
2018-May-15 09:57N 27°36' W 080°20'0 0.0
2018-May-15 09:28N 27°36' W 080°20'0 0.0
2018-May-15 09:00N 27°36' W 080°20'0 0.0
2018-May-15 08:30N 27°36' W 080°20'0 0.0
2018-May-15 07:59N 27°36' W 080°20'0 0.0
2018-May-15 07:31N 27°36' W 080°20'0 0.0
2018-May-15 06:58N 27°36' W 080°20'0 0.0
2018-May-15 06:28N 27°36' W 080°20'0 0.0
2018-May-15 05:57N 27°36' W 080°20'0 0.0
2018-May-15 05:28N 27°36' W 080°20'0 0.0
2018-May-15 04:59N 27°36' W 080°20'0 0.0
2018-May-15 04:28N 27°36' W 080°20'0 0.0
2018-May-15 03:59N 27°36' W 080°20'0 0.0
2018-May-15 03:29N 27°36' W 080°20'0 0.0
2018-May-15 02:58N 27°36' W 080°20'0 0.1
2018-May-15 02:27N 27°36' W 080°20'0 0.1
2018-May-15 02:00N 27°36' W 080°20'0 0.0
2018-May-15 01:29N 27°36' W 080°20'0 0.0
2018-May-14 23:17N 27°36' W 080°20'0 0.0
2018-May-14 23:00N 27°36' W 080°20'0 0.0
2018-May-14 21:34N 27°36' W 080°20'0 0.1
2018-May-14 21:30N 27°36' W 080°20'0 0.0
2018-May-14 20:56N 27°36' W 080°20'0 0.0
2018-May-14 20:30N 27°36' W 080°20'5 6.1
2018-May-14 19:45N 27°39' W 080°24'0 0.1
2018-May-14 19:30N 27°39' W 080°24'0 0.1
2018-May-14 18:59N 27°39' W 080°24'2 4.4
2018-May-14 18:30N 27°39' W 080°22'3 5.6
2018-May-14 17:58N 27°36' W 080°20'0 0.0
2018-May-14 17:30N 27°36' W 080°20'0 0.0
2018-May-14 16:58N 27°36' W 080°20'0 0.0
2018-May-14 16:28N 27°36' W 080°20'0 0.0
2018-May-14 15:51N 27°36' W 080°20'0 0.0
2018-May-14 15:27N 27°36' W 080°20'0 0.0
2018-May-14 14:55N 27°36' W 080°20'0 0.0
2018-May-14 14:22N 27°36' W 080°20'0 0.0
2018-May-14 13:07N 27°36' W 080°20'0 0.0
2018-May-14 12:59N 27°36' W 080°20'0 0.0
2018-May-14 12:30N 27°36' W 080°20'0 0.0
2018-May-14 09:57N 27°36' W 080°20'0 0.0
2018-May-14 04:09N 27°36' W 080°20'0 0.0
2018-May-14 03:59N 27°36' W 080°20'0 0.0
2018-May-14 03:30N 27°36' W 080°20'0 0.0
2018-May-14 02:58N 27°36' W 080°20'0 0.0
2018-May-14 02:27N 27°36' W 080°20'0 0.0
2018-May-14 01:42N 27°36' W 080°20'0 0.0
2018-May-14 01:23N 27°36' W 080°20'0 0.0
2018-May-14 00:19N 27°36' W 080°20'0 0.0
2018-May-14 00:00N 27°36' W 080°20'0 0.0
2018-May-13 23:30N 27°36' W 080°20'0 0.0
2018-May-13 22:56N 27°36' W 080°20'0 0.0
2018-May-13 21:20N 27°36' W 080°20'0 0.0
2018-May-13 20:54N 27°36' W 080°20'  
Track history (hours):
 
Tides and Currents Weather Stations Pressure Air Temp Water Temp Dewpoint Dewpoint Depression Visibility Wind Speed Wind Dir Waves Ship Positions

Trophy

Last reported at 2018-May-23 20:42 UTC. Time now 2018-May-25 01:05 UTC.
Position N 40°42' W 074°10'.

Length 6 m; draft 1 m.

Type: Pleasure craft. MMSI: 338300588.

Date/timePositionNaut miles runAvg speedWind from/ knotsBaromVisibWave heightAir tempDewpointWater temp
2018-May-23 20:42N 40°42' W 074°10'0 0.3
2018-May-23 20:29N 40°42' W 074°10'852138.0
2018-May-23 14:19N 27°25' W 080°17'11 4.5
2018-May-23 11:50N 27°36' W 080°20'0 0.0
2018-May-23 01:14N 27°36' W 080°20'0 0.1
2018-May-23 01:00N 27°36' W 080°20'0 0.0
2018-May-22 23:50N 27°36' W 080°20'0 0.0
2018-May-22 23:28N 27°36' W 080°20'0 0.0
2018-May-22 22:58N 27°36' W 080°20'0 0.0
2018-May-22 22:30N 27°36' W 080°20'0 0.0
2018-May-22 21:19N 27°36' W 080°20'0 0.0
2018-May-22 20:59N 27°36' W 080°20'0 0.0
2018-May-22 20:29N 27°36' W 080°20'3 3.2
2018-May-22 19:28N 27°38' W 080°23'1 0.7
2018-May-22 18:39N 27°37' W 080°24'0 0.0
2018-May-22 18:29N 27°37' W 080°24'0 0.0
2018-May-22 17:17N 27°38' W 080°24'0 0.0
2018-May-22 17:00N 27°38' W 080°24'3 5.2
2018-May-22 16:21N 27°36' W 080°20'0 0.0
2018-May-22 15:57N 27°36' W 080°20'0 0.0
2018-May-22 15:29N 27°36' W 080°20'0 0.0
2018-May-22 14:21N 27°36' W 080°20'0 0.0
2018-May-22 07:52N 27°36' W 080°20'0 0.0
2018-May-22 03:22N 27°36' W 080°20'0 0.0
2018-May-22 02:39N 27°36' W 080°20'0 0.0
2018-May-22 02:29N 27°36' W 080°20'0 0.0
2018-May-22 00:59N 27°36' W 080°20'0 0.0
2018-May-21 23:55N 27°36' W 080°20'0 0.0
2018-May-21 23:02N 27°36' W 080°20'0 0.3
2018-May-21 22:59N 27°36' W 080°20'0 0.0
2018-May-21 22:19N 27°36' W 080°20'0 0.0
2018-May-21 21:55N 27°36' W 080°20'0 0.0
2018-May-21 21:30N 27°36' W 080°20'0 0.0
2018-May-21 21:00N 27°36' W 080°20'0 0.0
2018-May-21 20:20N 27°36' W 080°20'0 0.0
2018-May-21 19:49N 27°36' W 080°20'2 7.3
2018-May-21 19:31N 27°38' W 080°22'2 1.0
2018-May-21 17:17N 27°36' W 080°20'0 0.0
2018-May-21 16:59N 27°36' W 080°20'0 0.1
2018-May-21 16:30N 27°36' W 080°20'0 0.0
2018-May-21 16:00N 27°36' W 080°20'0 0.0
2018-May-21 14:54N 27°36' W 080°20'0 0.0
2018-May-21 14:09N 27°36' W 080°20'0 0.0
2018-May-21 13:57N 27°36' W 080°20'0 0.0
2018-May-21 13:06N 27°36' W 080°20'0 0.0
2018-May-21 12:57N 27°36' W 080°20'0 0.0
2018-May-21 08:59N 27°36' W 080°20'0 0.0
2018-May-21 08:14N 27°36' W 080°20'0 0.0
2018-May-21 07:59N 27°36' W 080°20'0 0.0
2018-May-21 07:28N 27°36' W 080°20'0 0.0
2018-May-21 07:00N 27°36' W 080°20'0 0.0
2018-May-21 06:28N 27°36' W 080°20'0 0.0
2018-May-21 05:59N 27°36' W 080°20'0 0.0
2018-May-21 05:28N 27°36' W 080°20'0 0.0
2018-May-21 04:59N 27°36' W 080°20'0 0.0
2018-May-21 04:27N 27°36' W 080°20'0 0.0
2018-May-21 03:59N 27°36' W 080°20'0 0.0
2018-May-21 03:30N 27°36' W 080°20'0 0.0
2018-May-21 03:00N 27°36' W 080°20'0 0.0
2018-May-21 01:58N 27°36' W 080°20'0 0.0
2018-May-20 23:33N 27°36' W 080°20'0 0.2
2018-May-20 23:30N 27°36' W 080°20'0 0.0
2018-May-20 23:00N 27°36' W 080°20'0 0.0
2018-May-20 21:59N 27°36' W 080°20'0 0.0
2018-May-20 21:28N 27°36' W 080°20'0 0.0
2018-May-20 20:31N 27°36' W 080°20'0 0.2
2018-May-20 20:29N 27°36' W 080°20'0 0.0
2018-May-20 19:57N 27°36' W 080°20'0 0.0
2018-May-20 19:19N 27°36' W 080°20'0 0.0
2018-May-20 18:19N 27°36' W 080°20'0 0.0
2018-May-20 17:57N 27°36' W 080°20'0 0.0
2018-May-20 17:16N 27°36' W 080°20'0 0.0
2018-May-20 16:58N 27°36' W 080°20'0 0.0
2018-May-20 16:07N 27°36' W 080°20'0 0.0
2018-May-20 16:00N 27°36' W 080°20'0 0.0
2018-May-20 14:56N 27°36' W 080°20'0 0.0
2018-May-20 14:26N 27°36' W 080°20'0 0.0
2018-May-20 14:00N 27°36' W 080°20'0 0.0
2018-May-20 11:37N 27°36' W 080°20'0 0.0
2018-May-20 11:30N 27°36' W 080°20'0 0.0
2018-May-20 11:00N 27°36' W 080°20'0 0.0
2018-May-20 10:28N 27°36' W 080°20'0 0.0
2018-May-20 10:00N 27°36' W 080°20'0 0.0
2018-May-20 09:28N 27°36' W 080°20'0 0.0
2018-May-20 08:59N 27°36' W 080°20'0 0.0
2018-May-20 08:30N 27°36' W 080°20'0 0.0
2018-May-20 08:00N 27°36' W 080°20'0 0.0
2018-May-20 07:30N 27°36' W 080°20'0 0.0
2018-May-20 07:00N 27°36' W 080°20'0 0.0
2018-May-20 06:30N 27°36' W 080°20'0 0.0
2018-May-20 05:58N 27°36' W 080°20'0 0.0
2018-May-20 05:29N 27°36' W 080°20'0 0.0
2018-May-20 05:00N 27°36' W 080°20'0 0.0
2018-May-20 04:07N 27°36' W 080°20'0 0.0
2018-May-20 03:48N 27°36' W 080°20'0 0.0
2018-May-20 03:28N 27°36' W 080°20'0 0.0
2018-May-20 00:48N 27°36' W 080°20'0 0.1
2018-May-20 00:30N 27°36' W 080°20'0 0.0
2018-May-19 23:13N 27°36' W 080°20'0 0.0
2018-May-19 22:58N 27°36' W 080°20'0 0.1
2018-May-19 22:29N 27°36' W 080°20'0 0.0
2018-May-19 21:57N 27°36' W 080°20'0 0.0
2018-May-19 21:28N 27°36' W 080°20'0 0.0
2018-May-19 20:51N 27°36' W 080°20'0 0.0
2018-May-19 20:16N 27°36' W 080°20'0 0.0
2018-May-19 20:00N 27°36' W 080°20'0 0.0
2018-May-19 19:29N 27°36' W 080°20'0 0.0
2018-May-19 17:48N 27°36' W 080°20'0 0.0
2018-May-19 16:27N 27°36' W 080°20'0 0.0
2018-May-19 14:57N 27°36' W 080°20'0 0.0
2018-May-19 14:22N 27°36' W 080°20'0 0.0
2018-May-19 14:00N 27°36' W 080°20'0 0.0
2018-May-19 05:06N 27°36' W 080°20'0 0.1
2018-May-19 05:00N 27°36' W 080°20'0 0.0
2018-May-19 02:12N 27°36' W 080°20'0 0.1
2018-May-19 01:58N 27°36' W 080°20'0 0.0
2018-May-19 01:12N 27°36' W 080°20'0 0.0
2018-May-19 00:57N 27°36' W 080°20'0 0.0
2018-May-18 23:33N 27°36' W 080°20'0 0.1
2018-May-18 23:29N 27°36' W 080°20'0 0.0
2018-May-18 23:00N 27°36' W 080°20'0 0.0
2018-May-18 21:42N 27°36' W 080°20'0 0.0
2018-May-18 21:30N 27°36' W 080°20'0 0.0
2018-May-18 21:00N 27°36' W 080°20'0 0.0
2018-May-18 19:26N 27°36' W 080°20'0 0.0
2018-May-18 18:58N 27°36' W 080°20'3 2.4
2018-May-18 17:36N 27°38' W 080°23'0 0.1
2018-May-18 17:19N 27°38' W 080°23'1 1.5
2018-May-18 16:25N 27°39' W 080°24'5 3.2
2018-May-18 14:59N 27°36' W 080°20'0 0.0
2018-May-18 13:28N 27°36' W 080°20'0 0.0
2018-May-18 12:59N 27°36' W 080°20'0 0.0
2018-May-18 12:29N 27°36' W 080°20'0 0.0
2018-May-18 11:57N 27°36' W 080°20'0 0.0
2018-May-18 11:29N 27°36' W 080°20'0 0.0
2018-May-18 10:58N 27°36' W 080°20'0 0.0
2018-May-18 10:29N 27°36' W 080°20'0 0.0
2018-May-18 09:57N 27°36' W 080°20'0 0.0
2018-May-18 09:29N 27°36' W 080°20'0 0.0
2018-May-18 09:00N 27°36' W 080°20'0 0.0
2018-May-18 08:29N 27°36' W 080°20'0 0.0
2018-May-18 07:58N 27°36' W 080°20'0 0.0
2018-May-18 07:28N 27°36' W 080°20'0 0.0
2018-May-18 07:00N 27°36' W 080°20'0 0.0
2018-May-18 06:28N 27°36' W 080°20'0 0.0
2018-May-18 05:57N 27°36' W 080°20'0 0.0
2018-May-18 05:29N 27°36' W 080°20'0 0.0
2018-May-18 04:57N 27°36' W 080°20'0 0.0
2018-May-18 04:28N 27°36' W 080°20'0 0.0
2018-May-18 03:59N 27°36' W 080°20'0 0.0
2018-May-18 02:55N 27°36' W 080°20'0 0.0
2018-May-18 02:17N 27°36' W 080°20'0 0.0
2018-May-18 01:42N 27°36' W 080°20'0 0.0
2018-May-18 01:29N 27°36' W 080°20'0 0.0
2018-May-17 23:12N 27°36' W 080°20'0 0.0
2018-May-17 22:47N 27°36' W 080°20'0 0.0
2018-May-17 22:27N 27°36' W 080°20'0 0.0
2018-May-17 21:52N 27°36' W 080°20'0 0.0
2018-May-17 21:27N 27°36' W 080°20'0 0.0
2018-May-17 20:58N 27°36' W 080°20'0 0.0
2018-May-17 20:30N 27°36' W 080°20'0 0.0
2018-May-17 19:58N 27°36' W 080°20'0 0.0
2018-May-17 19:30N 27°36' W 080°20'0 0.0
2018-May-17 18:58N 27°36' W 080°20'0 0.0
2018-May-17 18:30N 27°36' W 080°20'0 0.0
2018-May-17 17:57N 27°36' W 080°20'0 0.0
2018-May-17 17:27N 27°36' W 080°20'0 0.0
2018-May-17 16:58N 27°36' W 080°20'0 0.0
2018-May-17 15:42N 27°36' W 080°20'0 0.0
2018-May-17 15:09N 27°36' W 080°20'0 0.0
2018-May-17 14:51N 27°36' W 080°20'0 0.0
2018-May-17 14:29N 27°36' W 080°20'0 0.0
2018-May-17 13:52N 27°36' W 080°20'0 0.0
2018-May-17 13:28N 27°36' W 080°20'0 0.0
2018-May-17 12:59N 27°36' W 080°20'0 0.0
2018-May-17 12:29N 27°36' W 080°20'0 0.0
2018-May-17 11:57N 27°36' W 080°20'0 0.0
2018-May-17 08:31N 27°36' W 080°20'0 0.0
2018-May-17 08:19N 27°36' W 080°20'0 0.0
2018-May-17 03:00N 27°36' W 080°20'0 0.0
2018-May-17 01:15N 27°36' W 080°20'0 0.0
2018-May-17 00:01N 27°36' W 080°20'0 0.1
2018-May-16 23:57N 27°36' W 080°20'0 0.0
2018-May-16 23:28N 27°36' W 080°20'0 0.0
2018-May-16 22:37N 27°36' W 080°20'0 0.0
2018-May-16 22:27N 27°36' W 080°20'0 0.0
2018-May-16 22:00N 27°36' W 080°20'0 0.0
2018-May-16 21:29N 27°36' W 080°20'3 2.7
2018-May-16 20:14N 27°38' W 080°23'1 5.5
2018-May-16 20:00N 27°40' W 080°24'5 9.2
2018-May-16 19:30N 27°36' W 080°20'0 0.0
2018-May-16 18:52N 27°36' W 080°20'0 0.0
2018-May-16 18:30N 27°36' W 080°20'0 0.0
2018-May-16 17:12N 27°36' W 080°20'0 0.0
2018-May-16 16:59N 27°36' W 080°20'0 0.0
2018-May-16 16:26N 27°36' W 080°20'0 0.0
2018-May-16 13:12N 27°36' W 080°20'0 0.0
2018-May-16 12:58N 27°36' W 080°20'0 0.0
2018-May-16 12:10N 27°36' W 080°20'0 0.0
2018-May-16 11:57N 27°36' W 080°20'0 0.0
2018-May-16 11:29N 27°36' W 080°20'0 0.0
2018-May-16 11:00N 27°36' W 080°20'0 0.0
2018-May-16 10:28N 27°36' W 080°20'0 0.0
2018-May-16 10:00N 27°36' W 080°20'0 0.0
2018-May-16 09:28N 27°36' W 080°20'0 0.0
2018-May-16 08:59N 27°36' W 080°20'0 0.0
2018-May-16 08:30N 27°36' W 080°20'0 0.0
2018-May-16 07:57N 27°36' W 080°20'0 0.0
2018-May-16 07:28N 27°36' W 080°20'0 0.0
2018-May-16 07:00N 27°36' W 080°20'0 0.0
2018-May-16 06:28N 27°36' W 080°20'0 0.0
2018-May-16 06:00N 27°36' W 080°20'0 0.0
2018-May-16 05:28N 27°36' W 080°20'0 0.0
2018-May-16 05:00N 27°36' W 080°20'0 0.0
2018-May-16 04:29N 27°36' W 080°20'0 0.0
2018-May-16 03:56N 27°36' W 080°20'0 0.0
2018-May-16 03:28N 27°36' W 080°20'0 0.0
2018-May-16 03:00N 27°36' W 080°20'0 0.0
2018-May-16 02:30N 27°36' W 080°20'0 0.0
2018-May-16 01:24N 27°36' W 080°20'0 0.0
2018-May-16 00:54N 27°36' W 080°20'0 0.0
2018-May-15 23:17N 27°36' W 080°20'0 0.0
2018-May-15 22:57N 27°36' W 080°20'0 0.0
2018-May-15 22:29N 27°36' W 080°20'0 0.0
2018-May-15 21:58N 27°36' W 080°20'0 0.0
2018-May-15 21:27N 27°36' W 080°20'0 0.0
2018-May-15 21:00N 27°36' W 080°20'0 0.0
2018-May-15 20:17N 27°36' W 080°20'0 0.0
2018-May-15 19:02N 27°36' W 080°20'0 0.0
2018-May-15 18:37N 27°36' W 080°20'0 0.0
2018-May-15 18:28N 27°36' W 080°20'0 0.0
2018-May-15 17:32N 27°36' W 080°20'0 0.1
2018-May-15 17:28N 27°36' W 080°20'0 0.0
2018-May-15 16:58N 27°36' W 080°20'0 0.0
2018-May-15 16:29N 27°36' W 080°20'0 0.0
2018-May-15 15:58N 27°36' W 080°20'0 0.0
2018-May-15 15:24N 27°36' W 080°20'0 0.0
2018-May-15 14:55N 27°36' W 080°20'0 0.0
2018-May-15 14:27N 27°36' W 080°20'0 0.0
2018-May-15 13:57N 27°36' W 080°20'0 0.0
2018-May-15 13:25N 27°36' W 080°20'0 0.0
2018-May-15 12:56N 27°36' W 080°20'0 0.0
2018-May-15 12:30N 27°36' W 080°20'0 0.0
2018-May-15 12:00N 27°36' W 080°20'0 0.0
2018-May-15 11:26N 27°36' W 080°20'0 0.0
2018-May-15 11:00N 27°36' W 080°20'0 0.0
2018-May-15 10:27N 27°36' W 080°20'0 0.0
2018-May-15 09:57N 27°36' W 080°20'0 0.0
2018-May-15 09:28N 27°36' W 080°20'0 0.0
2018-May-15 09:00N 27°36' W 080°20'0 0.0
2018-May-15 08:30N 27°36' W 080°20'0 0.0
2018-May-15 07:59N 27°36' W 080°20'0 0.0
2018-May-15 07:31N 27°36' W 080°20'0 0.0
2018-May-15 06:58N 27°36' W 080°20'0 0.0
2018-May-15 06:28N 27°36' W 080°20'0 0.0
2018-May-15 05:57N 27°36' W 080°20'0 0.0
2018-May-15 05:28N 27°36' W 080°20'0 0.0
2018-May-15 04:59N 27°36' W 080°20'0 0.0
2018-May-15 04:28N 27°36' W 080°20'0 0.0
2018-May-15 03:59N 27°36' W 080°20'0 0.0
2018-May-15 03:29N 27°36' W 080°20'0 0.0
2018-May-15 02:58N 27°36' W 080°20'0 0.1
2018-May-15 02:27N 27°36' W 080°20'0 0.1
2018-May-15 02:00N 27°36' W 080°20'0 0.0
2018-May-15 01:29N 27°36' W 080°20'0 0.0
2018-May-14 23:17N 27°36' W 080°20'0 0.0
2018-May-14 23:00N 27°36' W 080°20'0 0.0
2018-May-14 21:34N 27°36' W 080°20'0 0.1
2018-May-14 21:30N 27°36' W 080°20'0 0.0
2018-May-14 20:56N 27°36' W 080°20'0 0.0
2018-May-14 20:30N 27°36' W 080°20'5 6.1
2018-May-14 19:45N 27°39' W 080°24'0 0.1
2018-May-14 19:30N 27°39' W 080°24'0 0.1
2018-May-14 18:59N 27°39' W 080°24'2 4.4
2018-May-14 18:30N 27°39' W 080°22'3 5.6
2018-May-14 17:58N 27°36' W 080°20'0 0.0
2018-May-14 17:30N 27°36' W 080°20'0 0.0
2018-May-14 16:58N 27°36' W 080°20'0 0.0
2018-May-14 16:28N 27°36' W 080°20'0 0.0
2018-May-14 15:51N 27°36' W 080°20'0 0.0
2018-May-14 15:27N 27°36' W 080°20'0 0.0
2018-May-14 14:55N 27°36' W 080°20'0 0.0
2018-May-14 14:22N 27°36' W 080°20'0 0.0
2018-May-14 13:07N 27°36' W 080°20'0 0.0
2018-May-14 12:59N 27°36' W 080°20'0 0.0
2018-May-14 12:30N 27°36' W 080°20'0 0.0
2018-May-14 09:57N 27°36' W 080°20'0 0.0
2018-May-14 04:09N 27°36' W 080°20'0 0.0
2018-May-14 03:59N 27°36' W 080°20'0 0.0
2018-May-14 03:30N 27°36' W 080°20'0 0.0
2018-May-14 02:58N 27°36' W 080°20'0 0.0
2018-May-14 02:27N 27°36' W 080°20'0 0.0
2018-May-14 01:42N 27°36' W 080°20'0 0.0
2018-May-14 01:23N 27°36' W 080°20'0 0.0
2018-May-14 00:19N 27°36' W 080°20'0 0.0
2018-May-14 00:00N 27°36' W 080°20'0 0.0
2018-May-13 23:30N 27°36' W 080°20'0 0.0
2018-May-13 22:56N 27°36' W 080°20'0 0.0
2018-May-13 21:20N 27°36' W 080°20'0 0.0
2018-May-13 20:54N 27°36' W 080°20'  

Dump ship's entire track history